LEBL/BCN METAR and TAF weather

Enter ICAO airport designator
Station Type Date Time Source
LEBL METAR 2021/08/04 19:00 UTC NOAA

LEBL 041900Z 07012KT 040V100 9999 FEW015 22/18 Q1015 NOSIG


Station Type Date Time Source
LEBL Decoded METAR 2021/08/04 19:00 UTC NOAA

Barcelona / Aeropuerto, Spain (LEBL) 41-17N 002-04E 6M
Aug 04, 2021 - 03:00 PM EDT / 2021.08.04 1900 UTC
Wind: from the ENE (070 degrees) at 14 MPH (12 KT) (direction variable):0
Visibility: greater than 7 mile(s):0
Sky conditions: mostly clear
Temperature: 71 F (22 C)
Dew Point: 64 F (18 C)
Relative Humidity: 78%
Pressure (altimeter): 29.97 in. Hg (1015 hPa)
ob: LEBL 041900Z 07012KT 040V100 9999 FEW015 22/18 Q1015 NOSIG
cycle: 19

Station Type Date Time Source
LEBL TAF 2021/08/04 18:27 UTC NOAA

TAF LEBL 041700Z 0418/0518 21010KT 9999 SCT014 TX29/0512Z TN21/0506Z
TEMPO 0418/0420 07015G25KT
TEMPO 0420/0422 06005KT
BECMG 0422/0424 33007KT
BECMG 0509/0511 22015KT

Example: see airport list